createdAt,value
2023-01-15T00:01:01.474Z,100.00
2023-01-15T00:03:29.268Z,100.00
2023-01-15T00:05:58.389Z,100.00
2023-01-15T00:08:26.177Z,100.00
2023-01-15T00:10:53.790Z,100.00
2023-01-15T00:13:22.947Z,100.00
2023-01-15T00:15:50.984Z,100.00
2023-01-15T00:18:18.623Z,100.00
2023-01-15T00:20:46.537Z,100.00
2023-01-15T00:23:34.129Z,100.00
2023-01-15T00:26:19.354Z,100.00
2023-01-15T00:28:50.647Z,100.00
2023-01-15T00:31:18.288Z,100.00
2023-01-15T00:33:45.919Z,100.00
2023-01-15T00:36:13.972Z,100.00
2023-01-15T00:38:41.536Z,100.00
2023-01-15T00:41:09.515Z,100.00
2023-01-15T00:43:37.158Z,100.00
2023-01-15T00:46:08.551Z,100.00
2023-01-15T00:48:37.042Z,100.00
2023-01-15T00:51:05.572Z,100.00
2023-01-15T00:53:33.659Z,100.00
2023-01-15T00:56:02.959Z,100.00
2023-01-15T00:58:31.029Z,100.00
2023-01-15T01:01:00.852Z,100.00
2023-01-15T01:03:31.025Z,100.00
2023-01-15T01:06:02.366Z,100.00
2023-01-15T01:08:30.284Z,100.00
2023-01-15T01:11:06.486Z,100.00
2023-01-15T01:13:34.392Z,100.00
2023-01-15T01:16:02.912Z,100.00
2023-01-15T01:18:32.739Z,100.00
2023-01-15T01:21:01.234Z,100.00
2023-01-15T01:23:30.404Z,100.00
2023-01-15T01:25:58.949Z,100.00
2023-01-15T01:28:27.531Z,100.00
2023-01-15T01:30:57.419Z,100.00
2023-01-15T01:33:25.520Z,100.00
2023-01-15T01:35:54.470Z,100.00
2023-01-15T01:38:22.416Z,100.00
2023-01-15T01:40:53.551Z,100.00
2023-01-15T01:43:22.957Z,100.00
2023-01-15T01:45:50.760Z,100.00
2023-01-15T01:48:22.462Z,100.00
2023-01-15T01:50:52.511Z,100.00
2023-01-15T01:53:25.160Z,100.00
2023-01-15T01:55:56.503Z,100.00
2023-01-15T01:58:28.611Z,100.00
2023-01-15T02:00:57.544Z,100.00
2023-01-15T02:03:35.404Z,100.00
2023-01-15T02:06:10.548Z,100.00
2023-01-15T02:08:40.440Z,100.00
2023-01-15T02:11:17.487Z,100.00
2023-01-15T02:13:55.407Z,100.00
2023-01-15T02:16:26.737Z,100.00
2023-01-15T02:19:01.289Z,100.00
2023-01-15T02:21:45.486Z,100.00
2023-01-15T02:24:18.428Z,100.00
2023-01-15T02:27:03.281Z,100.00
2023-01-15T02:29:39.399Z,100.00
2023-01-15T02:32:12.142Z,100.00
2023-01-15T02:34:49.400Z,100.00
2023-01-15T02:37:23.436Z,100.00
2023-01-15T02:39:56.416Z,100.00
2023-01-15T02:42:30.481Z,100.00
2023-01-15T02:45:01.638Z,100.00
2023-01-15T02:47:35.270Z,100.00
2023-01-15T02:50:08.430Z,100.00
2023-01-15T02:52:44.708Z,100.00
2023-01-15T02:55:18.911Z,100.00
2023-01-15T02:57:52.580Z,100.00
2023-01-15T03:00:23.757Z,100.00
2023-01-15T03:02:59.269Z,100.00
2023-01-15T03:05:32.516Z,100.00
2023-01-15T03:08:03.853Z,100.00
2023-01-15T03:10:43.455Z,100.00
2023-01-15T03:13:44.275Z,100.00
2023-01-15T03:16:38.476Z,100.00
2023-01-15T03:19:19.162Z,100.00
2023-01-15T03:21:55.753Z,100.00
2023-01-15T03:24:32.141Z,100.00
2023-01-15T03:27:01.628Z,100.00
2023-01-15T03:29:38.419Z,100.00
2023-01-15T03:32:08.369Z,100.00
2023-01-15T03:34:41.313Z,100.00
2023-01-15T03:37:10.428Z,100.00
2023-01-15T03:39:40.338Z,100.00
2023-01-15T03:42:36.189Z,100.00
2023-01-15T03:45:12.829Z,100.00
2023-01-15T03:47:54.528Z,100.00
2023-01-15T03:50:32.455Z,100.00
2023-01-15T03:53:11.510Z,100.00
2023-01-15T03:55:54.438Z,100.00
2023-01-15T03:58:30.148Z,100.00
2023-01-15T04:01:05.499Z,100.00
2023-01-15T04:03:36.164Z,100.00
2023-01-15T04:06:08.410Z,100.00
2023-01-15T04:08:41.353Z,100.00
2023-01-15T04:11:09.650Z,100.00
2023-01-15T04:13:44.375Z,100.00
2023-01-15T04:16:29.417Z,100.00
2023-01-15T04:19:00.954Z,100.00
2023-01-15T04:21:30.680Z,100.00
2023-01-15T04:23:59.847Z,100.00
2023-01-15T04:26:27.437Z,100.00
2023-01-15T04:28:56.008Z,100.00
2023-01-15T04:31:23.703Z,100.00
2023-01-15T04:33:54.400Z,100.00
2023-01-15T04:36:22.428Z,100.00
2023-01-15T04:38:50.881Z,100.00
2023-01-15T04:41:36.345Z,100.00
2023-01-15T04:44:09.962Z,100.00
2023-01-15T04:46:39.373Z,100.00
2023-01-15T04:49:13.490Z,100.00
2023-01-15T04:51:42.024Z,100.00
2023-01-15T04:54:11.323Z,100.00
2023-01-15T04:56:40.994Z,100.00
2023-01-15T04:59:10.289Z,100.00
2023-01-15T05:01:38.402Z,100.00
2023-01-15T05:04:09.564Z,100.00
2023-01-15T05:06:37.456Z,100.00
2023-01-15T05:09:09.889Z,100.00
2023-01-15T05:11:39.412Z,100.00
2023-01-15T05:14:08.269Z,100.00
2023-01-15T05:16:38.097Z,100.00
2023-01-15T05:19:08.226Z,100.00
2023-01-15T05:21:40.740Z,100.00
2023-01-15T05:24:10.999Z,100.00
2023-01-15T05:26:38.924Z,100.00
2023-01-15T05:31:59.998Z,100.00
2023-01-15T05:34:27.537Z,100.00
2023-01-15T05:36:57.344Z,100.00
2023-01-15T05:39:25.969Z,100.00
2023-01-15T05:41:54.509Z,100.00
2023-01-15T05:44:24.391Z,100.00
2023-01-15T05:46:54.521Z,100.00
2023-01-15T05:49:25.421Z,100.00
2023-01-15T05:51:54.802Z,100.00
2023-01-15T05:54:26.300Z,100.00
2023-01-15T05:56:54.628Z,100.00
2023-01-15T05:59:25.407Z,100.00
2023-01-15T06:04:45.825Z,100.00
2023-01-15T06:07:13.594Z,100.00
2023-01-15T06:09:45.384Z,100.00
2023-01-15T06:12:14.837Z,100.00
2023-01-15T06:14:42.450Z,100.00
2023-01-15T06:17:10.797Z,100.00
2023-01-15T06:19:38.928Z,100.00
2023-01-15T06:22:09.645Z,100.00
2023-01-15T06:24:39.382Z,100.00
2023-01-15T06:27:08.409Z,100.00
2023-01-15T06:29:40.048Z,100.00
2023-01-15T06:32:07.823Z,100.00
2023-01-15T06:34:36.294Z,100.00
2023-01-15T06:37:03.987Z,100.00
2023-01-15T06:39:31.577Z,100.00
2023-01-15T06:42:16.621Z,100.00
2023-01-15T06:45:04.438Z,100.00
2023-01-15T06:47:32.495Z,100.00
2023-01-15T06:50:00.063Z,100.00
2023-01-15T06:52:30.465Z,100.00
2023-01-15T06:54:58.115Z,100.00
2023-01-15T06:57:25.856Z,100.00
2023-01-15T07:00:02.629Z,100.00
2023-01-15T07:02:30.286Z,100.00
2023-01-15T07:04:57.889Z,100.00
2023-01-15T07:07:28.858Z,100.00
2023-01-15T07:10:00.822Z,100.00
2023-01-15T07:12:28.816Z,100.00
2023-01-15T07:14:56.405Z,100.00
2023-01-15T07:17:25.357Z,100.00
2023-01-15T07:19:54.906Z,100.00
2023-01-15T07:22:25.956Z,100.00
2023-01-15T07:24:53.844Z,100.00
2023-01-15T07:27:21.543Z,100.00
2023-01-15T07:29:49.817Z,100.00
2023-01-15T07:32:17.484Z,100.00
2023-01-15T07:34:47.414Z,100.00
2023-01-15T07:37:15.049Z,100.00
2023-01-15T07:39:44.814Z,100.00
2023-01-15T07:42:29.793Z,100.00
2023-01-15T07:45:15.313Z,100.00
2023-01-15T07:48:00.729Z,100.00
2023-01-15T07:50:30.516Z,100.00
2023-01-15T07:52:59.830Z,100.00
2023-01-15T07:55:28.049Z,100.00
2023-01-15T07:57:56.425Z,100.00
2023-01-15T08:00:26.331Z,100.00
2023-01-15T08:02:58.772Z,100.00
2023-01-15T08:05:31.186Z,100.00
2023-01-15T08:07:58.949Z,100.00
2023-01-15T08:10:26.874Z,100.00
2023-01-15T08:13:11.992Z,100.00
2023-01-15T08:15:43.737Z,100.00
2023-01-15T08:18:11.539Z,100.00
2023-01-15T08:20:41.215Z,100.00
2023-01-15T08:23:10.520Z,100.00
2023-01-15T08:25:38.095Z,100.00
2023-01-15T08:28:06.040Z,100.00
2023-01-15T08:30:33.652Z,100.00
2023-01-15T08:33:03.707Z,100.00
2023-01-15T08:35:31.756Z,100.00
2023-01-15T08:38:05.426Z,99.96
2023-01-15T08:40:33.970Z,100.00
2023-01-15T08:43:01.571Z,98.85
2023-01-15T08:45:29.166Z,98.74
2023-01-15T08:47:57.845Z,99.78
2023-01-15T08:50:27.411Z,99.45
2023-01-15T08:52:56.024Z,99.09
2023-01-15T08:55:25.190Z,99.53
2023-01-15T08:57:53.517Z,100.00
2023-01-15T09:00:24.455Z,98.75
2023-01-15T09:02:52.912Z,98.53
2023-01-15T09:05:20.612Z,98.87
2023-01-15T09:07:48.485Z,99.19
2023-01-15T09:10:17.413Z,99.03
2023-01-15T09:12:46.380Z,99.28
2023-01-15T09:15:14.197Z,98.45
2023-01-15T09:17:42.553Z,95.90
2023-01-15T09:20:13.768Z,94.76
2023-01-15T09:22:41.382Z,94.39
2023-01-15T09:25:09.501Z,93.71
2023-01-15T09:27:38.024Z,94.46
2023-01-15T09:30:08.608Z,95.45
2023-01-15T09:32:37.910Z,95.89
2023-01-15T09:35:06.288Z,96.58
2023-01-15T09:37:33.909Z,96.53
2023-01-15T09:40:02.574Z,96.51
2023-01-15T09:42:41.391Z,96.37
2023-01-15T09:45:25.688Z,94.14
2023-01-15T09:48:18.348Z,92.34
2023-01-15T09:51:00.287Z,89.69
2023-01-15T09:53:40.546Z,89.81
2023-01-15T09:56:17.564Z,88.17
2023-01-15T09:58:46.370Z,89.19
2023-01-15T10:01:20.478Z,89.81
2023-01-15T10:03:58.442Z,90.45
2023-01-15T10:06:30.395Z,89.92
2023-01-15T10:09:05.436Z,89.71
2023-01-15T10:11:57.025Z,88.93
2023-01-15T10:14:39.052Z,89.51
2023-01-15T10:17:19.488Z,88.62
2023-01-15T10:19:48.452Z,88.45
2023-01-15T10:22:28.567Z,86.50
2023-01-15T10:24:58.637Z,86.08
2023-01-15T10:27:29.992Z,87.01
2023-01-15T10:30:06.419Z,87.22
2023-01-15T10:33:01.173Z,88.10
2023-01-15T10:35:37.341Z,88.09
2023-01-15T10:38:15.290Z,86.27
2023-01-15T10:41:05.480Z,85.66
2023-01-15T10:43:44.432Z,86.29
2023-01-15T10:46:14.708Z,85.96
2023-01-15T10:48:50.457Z,86.44
2023-01-15T10:51:21.736Z,85.46
2023-01-15T10:53:55.426Z,86.11
2023-01-15T10:56:33.975Z,86.21
2023-01-15T10:59:12.040Z,87.00
2023-01-15T11:01:42.572Z,84.80
2023-01-15T11:04:13.823Z,86.17
2023-01-15T11:06:42.600Z,84.86
2023-01-15T11:09:20.608Z,84.66
2023-01-15T11:12:08.227Z,84.18
2023-01-15T11:14:56.206Z,83.62
2023-01-15T11:17:42.450Z,83.06
2023-01-15T11:20:28.661Z,84.23
2023-01-15T11:22:57.660Z,84.18
2023-01-15T11:25:30.749Z,82.23
2023-01-15T11:28:01.498Z,83.09
2023-01-15T11:30:32.433Z,82.02
2023-01-15T11:33:03.971Z,82.69
2023-01-15T11:35:37.432Z,80.94
2023-01-15T11:38:07.550Z,80.93
2023-01-15T11:40:35.593Z,79.59
2023-01-15T11:43:24.427Z,80.17
2023-01-15T11:46:11.411Z,81.93
2023-01-15T11:49:05.036Z,80.32
2023-01-15T11:51:42.029Z,79.66
2023-01-15T11:54:13.765Z,80.86
2023-01-15T11:56:46.459Z,81.10
2023-01-15T11:59:19.669Z,79.66
2023-01-15T12:01:54.813Z,79.85
2023-01-15T12:04:31.797Z,77.51
2023-01-15T12:07:02.213Z,78.30
2023-01-15T12:09:45.403Z,79.80
2023-01-15T12:12:28.029Z,80.18
2023-01-15T12:15:17.436Z,77.23
2023-01-15T12:18:08.925Z,76.62
2023-01-15T12:20:55.838Z,77.44
2023-01-15T12:23:42.994Z,77.04
2023-01-15T12:26:20.841Z,78.12
2023-01-15T12:28:58.768Z,76.50
2023-01-15T12:31:33.779Z,76.40
2023-01-15T12:34:09.497Z,77.93
2023-01-15T12:36:42.715Z,77.88
2023-01-15T12:39:19.751Z,78.38
2023-01-15T12:42:10.324Z,78.18
2023-01-15T12:45:04.113Z,78.85
2023-01-15T12:47:40.483Z,77.91
2023-01-15T12:50:23.355Z,78.02
2023-01-15T12:53:02.215Z,78.78
2023-01-15T12:55:34.250Z,76.82
2023-01-15T12:58:03.269Z,77.65
2023-01-15T13:00:38.492Z,78.38
2023-01-15T13:03:21.910Z,79.04
2023-01-15T13:05:53.462Z,77.83
2023-01-15T13:08:27.224Z,77.36
2023-01-15T13:10:56.192Z,77.87
2023-01-15T13:13:26.430Z,78.50
2023-01-15T13:16:06.774Z,78.30
2023-01-15T13:18:42.720Z,78.39
2023-01-15T13:21:13.898Z,78.62
2023-01-15T13:23:58.159Z,79.21
2023-01-15T13:26:52.509Z,78.48
2023-01-15T13:29:28.798Z,79.48
2023-01-15T13:32:06.435Z,78.47
2023-01-15T13:34:41.335Z,76.15
2023-01-15T13:37:20.434Z,76.71
2023-01-15T13:39:50.677Z,79.09
2023-01-15T13:42:38.438Z,78.54
2023-01-15T13:45:27.774Z,78.83
2023-01-15T13:48:03.612Z,76.80
2023-01-15T13:50:33.689Z,77.74
2023-01-15T13:53:05.347Z,78.29
2023-01-15T13:56:02.312Z,77.76
2023-01-15T13:58:34.455Z,78.07
2023-01-15T14:01:09.018Z,78.01
2023-01-15T14:03:38.979Z,77.61
2023-01-15T14:06:09.425Z,78.31
2023-01-15T14:08:41.647Z,79.10
2023-01-15T14:11:35.848Z,78.14
2023-01-15T14:14:20.175Z,78.93
2023-01-15T14:16:55.607Z,77.86
2023-01-15T14:19:45.156Z,77.34
2023-01-15T14:22:35.515Z,78.92
2023-01-15T14:25:25.410Z,78.25
2023-01-15T14:28:04.165Z,79.37
2023-01-15T14:30:56.955Z,80.41
2023-01-15T14:33:33.214Z,79.17
2023-01-15T14:36:11.561Z,77.56
2023-01-15T14:38:49.190Z,77.40
2023-01-15T14:41:17.626Z,77.56
2023-01-15T14:43:49.493Z,78.75
2023-01-15T14:46:28.813Z,78.55
2023-01-15T14:48:57.466Z,79.05
2023-01-15T14:51:29.541Z,79.82
2023-01-15T14:54:00.429Z,79.06
2023-01-15T14:56:32.921Z,78.20
2023-01-15T14:59:09.122Z,79.46
2023-01-15T15:01:45.591Z,80.73
2023-01-15T15:04:25.519Z,80.29
2023-01-15T15:06:57.729Z,80.61
2023-01-15T15:09:31.593Z,80.03
2023-01-15T15:12:21.427Z,80.34
2023-01-15T15:15:04.385Z,80.22
2023-01-15T15:17:40.775Z,79.23
2023-01-15T15:20:23.075Z,79.07
2023-01-15T15:22:56.219Z,77.43
2023-01-15T15:25:28.163Z,79.08
2023-01-15T15:28:13.387Z,79.23
2023-01-15T15:30:45.120Z,79.94
2023-01-15T15:33:19.266Z,79.56
2023-01-15T15:35:50.129Z,80.11
2023-01-15T15:38:20.334Z,79.65
2023-01-15T15:40:51.626Z,80.50
2023-01-15T15:43:44.042Z,79.56
2023-01-15T15:46:46.411Z,80.02
2023-01-15T15:49:18.440Z,80.67
2023-01-15T15:51:48.512Z,79.92
2023-01-15T15:54:19.629Z,80.39
2023-01-15T15:56:53.195Z,79.45
2023-01-15T15:59:40.438Z,80.15
2023-01-15T16:02:19.394Z,80.02
2023-01-15T16:04:50.178Z,79.66
2023-01-15T16:07:25.190Z,79.08
2023-01-15T16:09:55.707Z,79.22
2023-01-15T16:12:24.584Z,78.94
2023-01-15T16:14:53.700Z,78.37
2023-01-15T16:17:21.364Z,79.38
2023-01-15T16:19:51.521Z,78.10
2023-01-15T16:22:22.428Z,77.16
2023-01-15T16:24:58.090Z,78.90
2023-01-15T16:27:30.713Z,77.92
2023-01-15T16:29:59.568Z,77.45
2023-01-15T16:32:31.409Z,77.83
2023-01-15T16:35:07.418Z,77.53
2023-01-15T16:37:36.383Z,77.81
2023-01-15T16:40:06.502Z,78.61
2023-01-15T16:42:37.659Z,79.11
2023-01-15T16:45:19.032Z,79.02
2023-01-15T16:48:02.402Z,79.65
2023-01-15T16:50:34.465Z,79.04
2023-01-15T16:53:04.523Z,79.09
2023-01-15T16:55:41.100Z,78.80
2023-01-15T16:58:20.531Z,79.46
2023-01-15T17:00:51.561Z,78.60
2023-01-15T17:03:21.285Z,78.74
2023-01-15T17:05:53.565Z,79.74
2023-01-15T17:08:25.142Z,78.56
2023-01-15T17:10:55.882Z,79.10
2023-01-15T17:13:34.957Z,79.89
2023-01-15T17:16:06.506Z,79.93
2023-01-15T17:18:35.661Z,81.05
2023-01-15T17:21:06.432Z,81.00
2023-01-15T17:23:36.952Z,80.36
2023-01-15T17:26:05.795Z,81.11
2023-01-15T17:28:33.503Z,81.11
2023-01-15T17:31:05.454Z,81.12
2023-01-15T17:33:33.126Z,81.60
2023-01-15T17:36:01.333Z,81.80
2023-01-15T17:38:30.432Z,81.92
2023-01-15T17:41:03.476Z,82.37
2023-01-15T17:43:31.141Z,81.32
2023-01-15T17:46:00.121Z,82.14
2023-01-15T17:48:28.080Z,82.20
2023-01-15T17:50:56.467Z,82.54
2023-01-15T17:53:24.128Z,81.85
2023-01-15T17:56:10.400Z,82.92
2023-01-15T17:58:58.483Z,83.39
2023-01-15T18:01:47.163Z,83.12
2023-01-15T18:04:36.795Z,82.75
2023-01-15T18:07:06.508Z,83.04
2023-01-15T18:09:36.430Z,82.88
2023-01-15T18:12:08.310Z,82.75
2023-01-15T18:14:37.415Z,83.76
2023-01-15T18:17:05.136Z,83.51
2023-01-15T18:19:34.437Z,84.15
2023-01-15T18:22:04.281Z,83.47
2023-01-15T18:24:31.911Z,83.72
2023-01-15T18:27:00.006Z,84.66
2023-01-15T18:29:29.635Z,83.85
2023-01-15T18:31:57.357Z,83.57
2023-01-15T18:34:24.976Z,83.01
2023-01-15T18:36:52.856Z,83.47
2023-01-15T18:39:21.432Z,82.56
2023-01-15T18:42:06.510Z,82.87
2023-01-15T18:44:53.452Z,83.04
2023-01-15T18:47:21.300Z,83.61
2023-01-15T18:49:51.250Z,83.75
2023-01-15T18:52:37.348Z,83.31
2023-01-15T18:55:05.454Z,83.76
2023-01-15T18:57:33.796Z,83.85
2023-01-15T19:00:02.998Z,83.26
2023-01-15T19:02:31.644Z,83.62
2023-01-15T19:05:00.582Z,83.34
2023-01-15T19:07:28.222Z,83.07
2023-01-15T19:09:56.129Z,83.91
2023-01-15T19:12:23.881Z,84.08
2023-01-15T19:15:08.924Z,83.50
2023-01-15T19:17:55.371Z,82.99
2023-01-15T19:20:23.074Z,83.85
2023-01-15T19:22:59.468Z,84.52
2023-01-15T19:25:29.836Z,84.64
2023-01-15T19:28:00.419Z,85.01
2023-01-15T19:30:29.409Z,84.63
2023-01-15T19:32:58.376Z,84.66
2023-01-15T19:35:26.190Z,85.11
2023-01-15T19:37:55.038Z,84.09
2023-01-15T19:40:23.149Z,85.03
2023-01-15T19:43:09.248Z,84.79
2023-01-15T19:45:57.827Z,85.09
2023-01-15T19:48:44.447Z,84.96
2023-01-15T19:51:13.569Z,84.21
2023-01-15T19:53:41.617Z,85.19
2023-01-15T19:56:09.556Z,85.21
2023-01-15T19:58:37.809Z,84.66
2023-01-15T20:01:05.905Z,84.52
2023-01-15T20:03:36.390Z,84.05
2023-01-15T20:06:08.532Z,84.64
2023-01-15T20:08:39.890Z,85.16
2023-01-15T20:11:10.400Z,85.13
2023-01-15T20:13:53.434Z,85.99
2023-01-15T20:16:25.201Z,86.17
2023-01-15T20:18:55.580Z,86.63
2023-01-15T20:21:23.448Z,86.43
2023-01-15T20:23:53.013Z,86.42
2023-01-15T20:26:24.442Z,86.05
2023-01-15T20:28:52.059Z,86.83
2023-01-15T20:31:20.247Z,87.42
2023-01-15T20:33:48.299Z,86.74
2023-01-15T20:36:17.512Z,87.17
2023-01-15T20:38:45.177Z,87.68
2023-01-15T20:41:35.501Z,87.58
2023-01-15T20:44:22.407Z,87.80
2023-01-15T20:46:50.063Z,87.81
2023-01-15T20:49:27.278Z,87.56
2023-01-15T20:51:57.315Z,87.71
2023-01-15T20:54:26.202Z,87.02
2023-01-15T20:56:54.065Z,87.52
2023-01-15T20:59:22.068Z,87.38
2023-01-15T21:01:49.860Z,87.28
2023-01-15T21:04:18.322Z,87.81
2023-01-15T21:06:46.541Z,87.99
2023-01-15T21:09:15.960Z,88.16
2023-01-15T21:11:43.629Z,88.67
2023-01-15T21:14:15.461Z,88.56
2023-01-15T21:16:45.170Z,88.32
2023-01-15T21:19:12.891Z,87.72
2023-01-15T21:21:41.005Z,87.94
2023-01-15T21:24:09.529Z,88.38
2023-01-15T21:26:39.137Z,88.69
2023-01-15T21:29:06.948Z,88.18
2023-01-15T21:31:36.870Z,88.00
2023-01-15T21:34:05.072Z,87.69
2023-01-15T21:36:32.894Z,88.33
2023-01-15T21:39:00.687Z,88.72
2023-01-15T21:41:42.925Z,88.94
2023-01-15T21:44:33.948Z,89.35
2023-01-15T21:47:03.666Z,89.38
2023-01-15T21:49:33.283Z,89.44
2023-01-15T21:52:03.430Z,89.72
2023-01-15T21:54:32.521Z,89.80
2023-01-15T21:57:00.179Z,90.38
2023-01-15T21:59:29.178Z,89.96
2023-01-15T22:01:57.508Z,89.83
2023-01-15T22:04:26.879Z,90.25
2023-01-15T22:06:55.342Z,90.31
2023-01-15T22:09:23.621Z,90.69
2023-01-15T22:11:52.476Z,90.45
2023-01-15T22:14:23.667Z,90.55
2023-01-15T22:16:55.584Z,89.76
2023-01-15T22:19:24.891Z,89.42
2023-01-15T22:21:53.508Z,89.49
2023-01-15T22:24:21.926Z,89.20
2023-01-15T22:26:54.325Z,89.13
2023-01-15T22:29:22.656Z,88.30
2023-01-15T22:31:50.983Z,87.54
2023-01-15T22:34:24.096Z,88.13
2023-01-15T22:36:52.615Z,87.28
2023-01-15T22:39:21.302Z,87.23
2023-01-15T22:42:06.512Z,87.62
2023-01-15T22:44:35.805Z,88.25
2023-01-15T22:47:04.798Z,88.44
2023-01-15T22:49:34.276Z,88.02
2023-01-15T22:52:02.457Z,88.22
2023-01-15T22:54:30.091Z,88.42
2023-01-15T22:56:57.730Z,88.59
2023-01-15T22:59:25.353Z,88.29
2023-01-15T23:01:53.293Z,87.92
2023-01-15T23:04:23.918Z,88.20
2023-01-15T23:06:54.158Z,88.19
2023-01-15T23:09:24.128Z,88.43
2023-01-15T23:11:52.226Z,88.58
2023-01-15T23:14:21.702Z,87.31
2023-01-15T23:16:50.434Z,88.53
2023-01-15T23:19:18.470Z,89.72
2023-01-15T23:21:47.445Z,90.31
2023-01-15T23:24:17.831Z,92.22
2023-01-15T23:26:45.449Z,93.73
2023-01-15T23:29:13.174Z,95.57
2023-01-15T23:31:40.738Z,96.70
2023-01-15T23:34:09.980Z,97.34
2023-01-15T23:36:37.609Z,98.71
2023-01-15T23:39:05.395Z,99.24
2023-01-15T23:41:54.278Z,99.55
2023-01-15T23:44:40.149Z,100.00
2023-01-15T23:47:08.967Z,100.00
2023-01-15T23:49:36.742Z,100.00
2023-01-15T23:52:05.544Z,100.00
2023-01-15T23:54:33.544Z,100.00
2023-01-15T23:57:03.126Z,100.00
2023-01-15T23:59:31.199Z,100.00
